Time;durP1;ratioP1;P1;durP2;ratioP2;P2;SDS_P1;SDS_P2;PMS_P1;PMS_P2;Temp;Humidity;BMP_temperature;BMP_pressure;BME280_temperature;BME280_humidity;BME280_pressure;Samples;Min_cycle;Max_cycle;Signal;HPM_P1;HPM_P2
2023/08/15 00:01:30;;;;;;;2.25;1.70;;;;;;;;;;6157432;23;20214;-86
2023/08/15 00:03:58;;;;;;;2.65;2.00;;;;;;;;;;6157489;23;20231;-86
2023/08/15 00:06:25;;;;;;;2.78;2.30;;;;;;;;;;6157860;23;20258;-86
2023/08/15 00:08:54;;;;;;;2.78;1.50;;;;;;;;;;6157421;23;20630;-86
2023/08/15 00:11:22;;;;;;;1.45;1.35;;;;;;;;;;6157924;23;20574;-86
2023/08/15 00:13:49;;;;;;;1.38;1.38;;;;;;;;;;6158198;23;20263;-86
2023/08/15 00:16:18;;;;;;;1.90;1.80;;;;;;;;;;6158815;23;20261;-86
2023/08/15 00:18:45;;;;;;;1.60;1.50;;;;;;;;;;6158127;23;20207;-87
2023/08/15 00:21:14;;;;;;;1.55;1.40;;;;;;;;;;6158337;23;20223;-85
2023/08/15 00:23:41;;;;;;;1.55;1.45;;;;;;;;;;6157640;23;20242;-86
2023/08/15 00:26:09;;;;;;;1.50;1.40;;;;;;;;;;6157625;23;20686;-85
2023/08/15 00:28:37;;;;;;;1.65;1.55;;;;;;;;;;6157708;23;20179;-85
2023/08/15 00:31:04;;;;;;;1.42;1.33;;;;;;;;;;6157757;23;20199;-85
2023/08/15 00:33:33;;;;;;;1.80;1.70;;;;;;;;;;6158300;23;20258;-85
2023/08/15 00:36:00;;;;;;;1.83;1.73;;;;;;;;;;6157034;23;20199;-84
2023/08/15 00:38:28;;;;;;;2.70;1.67;;;;;;;;;;6158176;23;20186;-84
2023/08/15 00:40:55;;;;;;;1.90;1.80;;;;;;;;;;6157784;23;20266;-84
2023/08/15 00:43:23;;;;;;;2.17;1.98;;;;;;;;;;6157804;23;20278;-84
2023/08/15 00:45:50;;;;;;;2.70;2.50;;;;;;;;;;6158490;23;20258;-85
2023/08/15 00:48:18;;;;;;;2.50;2.30;;;;;;;;;;6158403;23;20698;-85
2023/08/15 00:50:50;;;;;;;2.80;2.42;;;;;;;;;;6157275;23;20233;-85
2023/08/15 00:53:18;;;;;;;3.30;2.28;;;;;;;;;;6157306;23;20222;-85
2023/08/15 00:55:47;;;;;;;4.38;3.05;;;;;;;;;;6158486;23;20203;-85
2023/08/15 00:58:15;;;;;;;1.85;1.75;;;;;;;;;;6158950;23;20254;-85
2023/08/15 01:00:43;;;;;;;1.70;1.60;;;;;;;;;;6157271;23;20286;-85
2023/08/15 01:03:10;;;;;;;2.30;2.10;;;;;;;;;;6156016;23;20190;-85
2023/08/15 01:05:39;;;;;;;1.90;1.80;;;;;;;;;;6158506;23;20646;-84
2023/08/15 01:08:09;;;;;;;1.70;1.60;;;;;;;;;;6158340;23;20266;-85
2023/08/15 01:10:37;;;;;;;2.25;2.05;;;;;;;;;;6157737;23;20253;-85
2023/08/15 01:13:10;;;;;;;1.90;1.80;;;;;;;;;;6158185;23;20182;-85
2023/08/15 01:15:42;;;;;;;3.15;2.13;;;;;;;;;;6157649;23;20164;-85
2023/08/15 01:18:13;;;;;;;3.47;2.47;;;;;;;;;;6157296;23;20638;-85
2023/08/15 01:20:41;;;;;;;1.65;1.55;;;;;;;;;;6156540;23;20217;-86
2023/08/15 01:23:10;;;;;;;2.53;2.33;;;;;;;;;;6156543;23;20181;-86
2023/08/15 01:25:42;;;;;;;2.42;2.13;;;;;;;;;;6157390;23;20574;-86
2023/08/15 01:28:13;;;;;;;3.05;2.15;;;;;;;;;;6156713;23;20271;-86
2023/08/15 01:30:44;;;;;;;2.97;2.00;;;;;;;;;;6157023;23;20163;-86
2023/08/15 01:33:20;;;;;;;1.95;1.85;;;;;;;;;;6157494;23;20183;-86
2023/08/15 01:35:49;;;;;;;3.50;2.00;;;;;;;;;;6157701;23;20682;-86
2023/08/15 01:38:23;;;;;;;2.78;2.58;;;;;;;;;;6157621;23;20202;-86
2023/08/15 01:40:52;;;;;;;2.53;2.38;;;;;;;;;;6156479;23;20651;-86
2023/08/15 01:43:19;;;;;;;2.25;1.90;;;;;;;;;;6157019;23;20202;-86
2023/08/15 01:45:47;;;;;;;2.50;2.30;;;;;;;;;;6156755;23;20249;-86
2023/08/15 01:48:15;;;;;;;2.60;2.25;;;;;;;;;;6157475;23;20257;-86
2023/08/15 01:50:43;;;;;;;2.20;2.00;;;;;;;;;;6157809;23;20199;-86
2023/08/15 01:53:10;;;;;;;1.95;1.85;;;;;;;;;;6156379;23;20741;-86
2023/08/15 01:55:38;;;;;;;2.58;2.30;;;;;;;;;;6157167;23;20262;-86
2023/08/15 01:58:06;;;;;;;2.60;2.40;;;;;;;;;;6157056;23;20275;-86
2023/08/15 02:00:34;;;;;;;2.58;2.38;;;;;;;;;;6157387;23;20250;-86
2023/08/15 02:03:02;;;;;;;1.85;1.75;;;;;;;;;;6157224;23;20561;-85
2023/08/15 02:05:29;;;;;;;2.17;2.05;;;;;;;;;;6156842;23;20714;-84
2023/08/15 02:07:57;;;;;;;1.90;1.80;;;;;;;;;;6156066;23;20258;-85
2023/08/15 02:10:24;;;;;;;2.42;2.30;;;;;;;;;;6157656;23;20257;-85
2023/08/15 02:12:52;;;;;;;2.45;2.25;;;;;;;;;;6156487;23;20282;-84
2023/08/15 02:15:20;;;;;;;2.42;2.10;;;;;;;;;;6156825;23;20178;-84
2023/08/15 02:17:48;;;;;;;2.58;2.40;;;;;;;;;;6156421;23;20262;-84
2023/08/15 02:20:15;;;;;;;2.35;2.25;;;;;;;;;;6158765;23;20266;-84
2023/08/15 02:22:43;;;;;;;1.80;1.70;;;;;;;;;;6157973;23;20191;-83
2023/08/15 02:25:10;;;;;;;3.08;2.25;;;;;;;;;;6157608;23;20211;-84
2023/08/15 02:27:38;;;;;;;2.92;1.95;;;;;;;;;;6157594;23;20270;-83
2023/08/15 02:30:08;;;;;;;2.28;2.08;;;;;;;;;;6156780;23;20261;-84
2023/08/15 02:32:37;;;;;;;3.22;2.20;;;;;;;;;;6156981;23;20199;-84
2023/08/15 02:35:05;;;;;;;2.40;2.10;;;;;;;;;;6158288;23;20559;-84
2023/08/15 02:37:34;;;;;;;2.38;2.10;;;;;;;;;;6158691;23;20232;-84
2023/08/15 02:40:01;;;;;;;3.15;2.42;;;;;;;;;;6156937;23;20178;-84
2023/08/15 02:42:29;;;;;;;3.60;2.75;;;;;;;;;;6157175;23;20202;-84
2023/08/15 02:44:56;;;;;;;2.30;2.17;;;;;;;;;;6158234;23;20258;-84
2023/08/15 02:47:24;;;;;;;3.15;2.28;;;;;;;;;;6157193;23;20404;-86
2023/08/15 02:49:53;;;;;;;4.43;2.70;;;;;;;;;;6157406;23;20202;-86
2023/08/15 02:52:20;;;;;;;2.05;1.95;;;;;;;;;;6156664;23;20278;-85
2023/08/15 02:54:47;;;;;;;2.67;2.47;;;;;;;;;;6155924;23;20213;-85
2023/08/15 02:57:15;;;;;;;2.72;2.45;;;;;;;;;;6156410;23;20273;-84
2023/08/15 02:59:42;;;;;;;1.70;1.58;;;;;;;;;;6156478;23;20257;-84
2023/08/15 03:02:11;;;;;;;2.60;2.40;;;;;;;;;;6157025;23;20219;-86
2023/08/15 03:04:38;;;;;;;2.05;1.95;;;;;;;;;;6157043;23;20181;-84
2023/08/15 03:07:07;;;;;;;3.55;2.40;;;;;;;;;;6156254;23;20179;-84
2023/08/15 03:09:35;;;;;;;3.42;2.35;;;;;;;;;;6157304;23;20548;-84
2023/08/15 03:12:02;;;;;;;5.05;3.22;;;;;;;;;;6156908;23;20270;-85
2023/08/15 03:14:30;;;;;;;2.58;2.38;;;;;;;;;;6158087;23;20262;-85
2023/08/15 03:16:57;;;;;;;2.97;2.75;;;;;;;;;;6155575;23;20217;-85
2023/08/15 03:19:25;;;;;;;4.07;2.60;;;;;;;;;;6156539;23;20257;-84
2023/08/15 03:21:52;;;;;;;2.40;2.20;;;;;;;;;;6154772;23;20286;-84
2023/08/15 03:24:21;;;;;;;3.17;2.45;;;;;;;;;;6156847;23;20210;-84
2023/08/15 03:26:49;;;;;;;1.88;1.60;;;;;;;;;;6156469;23;20221;-84
2023/08/15 03:29:16;;;;;;;1.50;1.40;;;;;;;;;;6157432;23;20253;-84
2023/08/15 03:31:43;;;;;;;1.42;1.30;;;;;;;;;;6157066;23;20282;-84
2023/08/15 03:34:11;;;;;;;1.65;1.55;;;;;;;;;;6155158;23;20237;-84
2023/08/15 03:36:38;;;;;;;1.40;1.30;;;;;;;;;;6156914;23;20253;-83
2023/08/15 03:39:06;;;;;;;1.88;1.73;;;;;;;;;;6156039;23;20258;-84
2023/08/15 03:41:35;;;;;;;3.40;2.00;;;;;;;;;;6155695;23;20233;-85
2023/08/15 03:44:02;;;;;;;2.58;2.22;;;;;;;;;;6156438;23;20254;-83
2023/08/15 03:46:30;;;;;;;1.88;1.77;;;;;;;;;;6156525;23;20206;-84
2023/08/15 03:48:58;;;;;;;1.80;1.70;;;;;;;;;;6156757;23;20287;-84
2023/08/15 03:51:25;;;;;;;1.80;1.70;;;;;;;;;;6156442;23;20214;-83
2023/08/15 03:53:53;;;;;;;1.75;1.65;;;;;;;;;;6156403;23;20249;-84
2023/08/15 03:56:20;;;;;;;2.15;2.00;;;;;;;;;;6157063;23;20225;-85
2023/08/15 03:58:49;;;;;;;1.70;1.60;;;;;;;;;;6153948;23;20182;-86
2023/08/15 04:01:16;;;;;;;1.60;1.50;;;;;;;;;;6156208;23;20203;-86
2023/08/15 04:03:44;;;;;;;1.60;1.50;;;;;;;;;;6155758;23;20222;-85
2023/08/15 04:06:11;;;;;;;1.40;1.30;;;;;;;;;;6156138;23;20217;-85
2023/08/15 04:08:39;;;;;;;4.38;2.30;;;;;;;;;;6155980;23;20210;-86
2023/08/15 04:11:06;;;;;;;2.38;2.15;;;;;;;;;;6155332;23;20697;-83
2023/08/15 04:13:33;;;;;;;2.30;2.17;;;;;;;;;;6154419;23;20536;-84
2023/08/15 04:16:02;;;;;;;2.00;1.77;;;;;;;;;;6154977;23;20258;-84
2023/08/15 04:18:30;;;;;;;1.88;1.77;;;;;;;;;;6154767;23;20207;-83
2023/08/15 04:20:57;;;;;;;1.63;1.48;;;;;;;;;;6156156;23;20583;-84
2023/08/15 04:23:24;;;;;;;2.05;1.85;;;;;;;;;;6155655;23;20281;-83
2023/08/15 04:25:52;;;;;;;2.20;2.00;;;;;;;;;;6155060;23;20258;-83
2023/08/15 04:28:19;;;;;;;2.00;1.90;;;;;;;;;;6156680;23;20803;-84
2023/08/15 04:30:47;;;;;;;2.47;2.13;;;;;;;;;;6155988;23;20274;-84
2023/08/15 04:33:24;;;;;;;2.30;2.10;;;;;;;;;;6155166;23;20234;-87
2023/08/15 04:35:52;;;;;;;3.60;2.30;;;;;;;;;;6154710;23;20203;-87
2023/08/15 04:38:19;;;;;;;2.33;2.10;;;;;;;;;;6153908;23;20218;-87
2023/08/15 04:40:46;;;;;;;1.90;1.80;;;;;;;;;;6154427;23;20167;-87
2023/08/15 04:43:14;;;;;;;2.45;2.25;;;;;;;;;;6154112;23;20273;-87
2023/08/15 04:45:43;;;;;;;2.45;2.25;;;;;;;;;;6154534;23;20565;-86
2023/08/15 04:48:11;;;;;;;2.55;2.35;;;;;;;;;;6154253;23;20558;-87
2023/08/15 04:50:40;;;;;;;2.15;1.95;;;;;;;;;;6154030;23;20211;-87
2023/08/15 04:53:08;;;;;;;2.72;2.53;;;;;;;;;;6154365;23;20731;-87
2023/08/15 04:55:36;;;;;;;1.85;1.75;;;;;;;;;;6154581;23;20213;-86
2023/08/15 04:58:04;;;;;;;2.10;2.00;;;;;;;;;;6154314;23;20777;-87
2023/08/15 05:00:32;;;;;;;2.17;2.08;;;;;;;;;;6154354;23;20260;-87
2023/08/15 05:02:59;;;;;;;1.90;1.80;;;;;;;;;;6154186;23;20649;-87
2023/08/15 05:05:27;;;;;;;1.50;1.40;;;;;;;;;;6154533;23;20253;-86
2023/08/15 05:07:56;;;;;;;1.30;1.30;;;;;;;;;;6154364;23;20210;-86
2023/08/15 05:10:23;;;;;;;1.63;1.52;;;;;;;;;;6153852;23;20708;-87
2023/08/15 05:12:51;;;;;;;2.33;2.22;;;;;;;;;;6154030;23;20943;-87
2023/08/15 05:15:19;;;;;;;2.00;1.70;;;;;;;;;;6154117;23;20528;-85
2023/08/15 05:17:48;;;;;;;1.73;1.63;;;;;;;;;;6154285;23;20175;-87
2023/08/15 05:20:15;;;;;;;2.47;2.30;;;;;;;;;;6154928;23;20171;-86
2023/08/15 05:22:43;;;;;;;2.88;2.50;;;;;;;;;;6155141;23;20194;-88
2023/08/15 05:25:12;;;;;;;5.18;2.58;;;;;;;;;;6155714;23;20261;-86
2023/08/15 05:27:39;;;;;;;6.07;2.50;;;;;;;;;;6155530;23;20702;-85
2023/08/15 05:30:09;;;;;;;2.03;1.85;;;;;;;;;;6155140;23;20262;-85
2023/08/15 05:32:36;;;;;;;1.90;1.52;;;;;;;;;;6166847;23;20203;-86
2023/08/15 05:35:04;;;;;;;1.60;1.50;;;;;;;;;;6184971;23;20198;-86
2023/08/15 05:37:32;;;;;;;2.13;1.70;;;;;;;;;;6184468;23;20245;-86
2023/08/15 05:39:59;;;;;;;1.38;1.27;;;;;;;;;;6185315;23;20630;-86
2023/08/15 05:42:28;;;;;;;1.45;1.35;;;;;;;;;;6184867;23;20277;-86
2023/08/15 05:44:55;;;;;;;1.77;1.67;;;;;;;;;;6184832;23;20257;-85
2023/08/15 05:47:23;;;;;;;1.85;1.40;;;;;;;;;;6184821;23;20225;-85
2023/08/15 05:49:50;;;;;;;1.80;1.70;;;;;;;;;;6185089;23;20261;-86
2023/08/15 05:52:18;;;;;;;1.60;1.50;;;;;;;;;;6184914;23;20591;-85
2023/08/15 05:54:45;;;;;;;1.52;1.42;;;;;;;;;;6185060;23;20300;-85
2023/08/15 05:57:13;;;;;;;1.30;1.20;;;;;;;;;;6185086;23;20702;-86
2023/08/15 05:59:42;;;;;;;2.38;2.00;;;;;;;;;;6185324;23;20202;-85
2023/08/15 06:02:09;;;;;;;1.90;1.80;;;;;;;;;;6184588;23;20277;-86
2023/08/15 06:04:37;;;;;;;1.48;1.38;;;;;;;;;;6184669;23;20202;-86
2023/08/15 06:07:04;;;;;;;1.60;1.50;;;;;;;;;;6184076;23;20171;-86
2023/08/15 06:09:32;;;;;;;1.38;1.27;;;;;;;;;;6184789;23;20178;-86
2023/08/15 06:11:59;;;;;;;1.23;1.20;;;;;;;;;;6184187;23;20206;-87
2023/08/15 06:14:27;;;;;;;1.52;1.38;;;;;;;;;;6184711;23;20589;-87
2023/08/15 06:16:56;;;;;;;1.95;1.65;;;;;;;;;;6184582;23;20254;-87
2023/08/15 06:19:23;;;;;;;1.50;1.40;;;;;;;;;;6184919;23;20180;-86
2023/08/15 06:21:51;;;;;;;1.95;1.77;;;;;;;;;;6184460;23;20679;-87
2023/08/15 06:24:18;;;;;;;1.92;1.83;;;;;;;;;;6184873;23;20249;-86
2023/08/15 06:26:46;;;;;;;2.40;2.20;;;;;;;;;;6184559;23;20254;-87
2023/08/15 06:29:13;;;;;;;3.95;3.60;;;;;;;;;;6184567;23;20684;-86
2023/08/15 06:31:40;;;;;;;3.42;2.88;;;;;;;;;;6184208;23;20257;-87
2023/08/15 06:34:09;;;;;;;3.35;3.05;;;;;;;;;;6184306;23;20194;-87
2023/08/15 06:36:37;;;;;;;3.13;2.92;;;;;;;;;;6183551;23;20249;-87
2023/08/15 06:39:05;;;;;;;5.60;3.28;;;;;;;;;;6184625;23;20206;-86
2023/08/15 06:41:32;;;;;;;2.63;2.42;;;;;;;;;;6184201;23;20224;-89
2023/08/15 06:44:00;;;;;;;2.85;2.65;;;;;;;;;;6184803;23;20282;-87
2023/08/15 06:46:27;;;;;;;3.35;2.65;;;;;;;;;;6184525;23;20171;-87
2023/08/15 06:48:55;;;;;;;3.08;2.78;;;;;;;;;;6184494;23;20177;-87
2023/08/15 06:51:24;;;;;;;2.70;2.40;;;;;;;;;;6184257;23;20228;-87
2023/08/15 06:53:54;;;;;;;3.03;2.28;;;;;;;;;;6184135;23;20182;-86
2023/08/15 06:56:21;;;;;;;2.85;2.65;;;;;;;;;;6184374;23;20221;-88
2023/08/15 06:58:49;;;;;;;2.33;2.20;;;;;;;;;;6184824;23;20254;-87
2023/08/15 07:01:16;;;;;;;1.98;1.88;;;;;;;;;;6183548;23;20209;-86
2023/08/15 07:03:44;;;;;;;2.15;1.95;;;;;;;;;;6184645;23;20269;-88
2023/08/15 07:06:11;;;;;;;2.10;1.98;;;;;;;;;;6184835;23;20228;-87
2023/08/15 07:08:41;;;;;;;3.58;2.08;;;;;;;;;;6184536;23;20688;-87
2023/08/15 07:11:08;;;;;;;4.00;3.70;;;;;;;;;;6184711;23;20257;-88
2023/08/15 07:13:35;;;;;;;3.40;3.10;;;;;;;;;;6184357;23;20587;-88
2023/08/15 07:16:03;;;;;;;3.22;2.83;;;;;;;;;;6184228;23;20273;-87
2023/08/15 07:18:30;;;;;;;2.50;2.30;;;;;;;;;;6184842;23;20253;-88
2023/08/15 07:20:59;;;;;;;3.10;2.80;;;;;;;;;;6184680;23;20205;-88
2023/08/15 07:23:27;;;;;;;2.15;1.95;;;;;;;;;;6184242;23;20200;-89
2023/08/15 07:25:55;;;;;;;2.85;2.63;;;;;;;;;;6184332;23;20201;-88
2023/08/15 07:28:23;;;;;;;2.90;2.70;;;;;;;;;;6184380;23;20578;-87
2023/08/15 07:30:50;;;;;;;2.40;2.20;;;;;;;;;;6184173;23;20554;-89
2023/08/15 07:33:18;;;;;;;3.03;2.83;;;;;;;;;;6183801;23;20237;-88
2023/08/15 07:35:45;;;;;;;3.85;3.50;;;;;;;;;;6184314;23;20587;-87
2023/08/15 07:38:14;;;;;;;3.03;2.83;;;;;;;;;;6183938;23;20253;-87
2023/08/15 07:40:42;;;;;;;4.07;3.05;;;;;;;;;;6183750;23;20197;-87
2023/08/15 07:43:11;;;;;;;4.28;3.88;;;;;;;;;;6183955;23;20252;-86
2023/08/15 07:45:38;;;;;;;5.82;4.03;;;;;;;;;;6184094;23;20193;-88
2023/08/15 07:48:06;;;;;;;3.67;3.13;;;;;;;;;;6183827;23;20217;-87
2023/08/15 07:50:34;;;;;;;3.20;2.90;;;;;;;;;;6183970;23;20258;-87
2023/08/15 07:53:01;;;;;;;3.85;3.55;;;;;;;;;;6183771;23;20282;-88
2023/08/15 07:55:30;;;;;;;5.38;3.60;;;;;;;;;;6183999;23;20273;-88
2023/08/15 07:57:58;;;;;;;4.38;3.45;;;;;;;;;;6184236;23;20178;-88
2023/08/15 08:00:27;;;;;;;2.83;2.60;;;;;;;;;;6184053;23;20262;-87
2023/08/15 08:02:54;;;;;;;2.60;2.40;;;;;;;;;;6185135;23;20209;-87
2023/08/15 08:05:22;;;;;;;3.25;3.00;;;;;;;;;;6185605;23;20174;-86
2023/08/15 08:07:49;;;;;;;2.33;2.20;;;;;;;;;;6185977;23;20572;-88
2023/08/15 08:10:17;;;;;;;2.83;2.63;;;;;;;;;;6185804;23;20258;-88
2023/08/15 08:12:45;;;;;;;2.53;2.33;;;;;;;;;;6185738;23;20218;-88
2023/08/15 08:15:13;;;;;;;3.45;3.15;;;;;;;;;;6185862;23;20194;-89
2023/08/15 08:17:42;;;;;;;2.20;2.10;;;;;;;;;;6186362;23;20502;-87
2023/08/15 08:20:12;;;;;;;2.42;2.22;;;;;;;;;;6186333;23;20561;-89
2023/08/15 08:22:40;;;;;;;3.13;2.92;;;;;;;;;;6185492;23;20202;-88
2023/08/15 08:25:16;;;;;;;5.70;3.58;;;;;;;;;;6185390;23;20189;-88
2023/08/15 08:27:43;;;;;;;2.75;2.55;;;;;;;;;;6186317;23;20165;-90
2023/08/15 08:30:13;;;;;;;3.70;3.10;;;;;;;;;;6186274;23;20183;-88
2023/08/15 08:32:42;;;;;;;3.28;3.08;;;;;;;;;;6185188;23;20241;-88
2023/08/15 08:35:10;;;;;;;3.47;2.85;;;;;;;;;;6186016;23;20198;-88
2023/08/15 08:37:37;;;;;;;4.82;3.35;;;;;;;;;;6185707;23;20182;-90
2023/08/15 08:40:07;;;;;;;2.63;2.17;;;;;;;;;;6185887;23;20209;-89
2023/08/15 08:42:36;;;;;;;2.78;2.53;;;;;;;;;;6185429;23;20194;-88
2023/08/15 08:45:04;;;;;;;1.88;1.77;;;;;;;;;;6185404;23;20550;-90
2023/08/15 08:47:35;;;;;;;1.90;1.80;;;;;;;;;;6185618;23;20250;-89
2023/08/15 08:50:06;;;;;;;2.70;2.50;;;;;;;;;;6185594;23;20189;-90
2023/08/15 08:52:33;;;;;;;2.75;2.40;;;;;;;;;;6185429;23;20186;-88
2023/08/15 08:55:01;;;;;;;2.30;2.10;;;;;;;;;;6185580;23;20519;-89
2023/08/15 08:57:29;;;;;;;2.00;1.90;;;;;;;;;;6185112;23;20691;-90
2023/08/15 08:59:58;;;;;;;2.28;2.03;;;;;;;;;;6185895;23;20174;-88
2023/08/15 09:02:25;;;;;;;2.30;2.10;;;;;;;;;;6185307;23;20200;-88
2023/08/15 09:04:53;;;;;;;2.58;2.10;;;;;;;;;;6185158;23;20257;-88
2023/08/15 09:07:22;;;;;;;2.67;2.15;;;;;;;;;;6185113;23;20240;-89
2023/08/15 09:09:50;;;;;;;1.83;1.73;;;;;;;;;;6185097;23;20250;-89
2023/08/15 09:12:36;;;;;;;1.85;1.75;;;;;;;;;;6184098;23;20226;-89
2023/08/15 09:15:07;;;;;;;1.77;1.67;;;;;;;;;;6185092;23;20162;-89
2023/08/15 09:17:34;;;;;;;1.67;1.58;;;;;;;;;;6185688;23;20174;-90
2023/08/15 09:20:13;;;;;;;1.42;1.33;;;;;;;;;;6185434;23;20205;-89
2023/08/15 09:22:45;;;;;;;1.55;1.45;;;;;;;;;;6185389;23;20198;-90
2023/08/15 09:25:14;;;;;;;2.28;1.60;;;;;;;;;;6185328;23;20178;-89
2023/08/15 09:27:43;;;;;;;2.15;2.05;;;;;;;;;;6185168;23;20170;-89
2023/08/15 09:30:13;;;;;;;2.78;1.90;;;;;;;;;;6184840;23;20253;-89
2023/08/15 09:32:43;;;;;;;1.58;1.48;;;;;;;;;;6184974;23;20230;-89
2023/08/15 09:35:12;;;;;;;2.63;1.80;;;;;;;;;;6185375;23;20249;-90
2023/08/15 09:37:45;;;;;;;2.33;1.98;;;;;;;;;;6185031;23;20266;-89
2023/08/15 09:40:17;;;;;;;1.85;1.42;;;;;;;;;;6185360;23;20244;-89
2023/08/15 09:42:45;;;;;;;1.92;1.83;;;;;;;;;;6185276;23;20282;-89
2023/08/15 09:45:14;;;;;;;1.67;1.58;;;;;;;;;;6184942;23;20201;-90
2023/08/15 09:47:42;;;;;;;2.30;2.10;;;;;;;;;;6184682;23;20598;-88
2023/08/15 09:50:12;;;;;;;1.75;1.65;;;;;;;;;;6185300;23;20171;-88
2023/08/15 09:52:41;;;;;;;1.60;1.50;;;;;;;;;;6185035;23;20233;-89
2023/08/15 09:55:12;;;;;;;1.50;1.30;;;;;;;;;;6185006;23;20602;-89
2023/08/15 09:57:41;;;;;;;1.45;1.35;;;;;;;;;;6185079;23;20228;-89
2023/08/15 10:00:13;;;;;;;1.65;1.55;;;;;;;;;;6184950;23;20171;-88
2023/08/15 10:02:44;;;;;;;1.83;1.73;;;;;;;;;;6185142;23;20213;-88
2023/08/15 10:05:13;;;;;;;2.25;2.05;;;;;;;;;;6185362;23;20193;-89
2023/08/15 10:07:42;;;;;;;3.10;1.70;;;;;;;;;;6184993;23;20170;-89
2023/08/15 10:10:12;;;;;;;2.17;1.98;;;;;;;;;;6185187;23;20197;-88
2023/08/15 10:12:41;;;;;;;1.30;1.30;;;;;;;;;;6184198;23;20201;-89
2023/08/15 10:15:10;;;;;;;2.10;1.55;;;;;;;;;;6185173;23;20178;-89
2023/08/15 10:17:39;;;;;;;1.33;1.33;;;;;;;;;;6184731;23;20684;-89
2023/08/15 10:20:10;;;;;;;3.75;3.45;;;;;;;;;;6185044;23;20250;-89
2023/08/15 10:22:39;;;;;;;2.10;1.90;;;;;;;;;;6185567;23;20194;-89
2023/08/15 10:25:35;;;;;;;1.40;1.30;;;;;;;;;;6184559;23;20688;-89
2023/08/15 10:28:10;;;;;;;1.35;1.25;;;;;;;;;;6185160;23;20155;-89
2023/08/15 10:30:41;;;;;;;2.30;1.20;;;;;;;;;;6185027;23;20150;-89
2023/08/15 10:33:17;;;;;;;1.00;1.00;;;;;;;;;;6185138;23;20202;-90
2023/08/15 10:35:51;;;;;;;1.33;1.00;;;;;;;;;;6186620;23;20174;-91
2023/08/15 10:38:21;;;;;;;1.17;1.17;;;;;;;;;;6185175;23;20660;-91
2023/08/15 10:40:52;;;;;;;1.25;1.25;;;;;;;;;;6185382;23;20177;-91
2023/08/15 10:43:24;;;;;;;1.30;1.13;;;;;;;;;;6185677;23;20213;-90
2023/08/15 10:45:53;;;;;;;1.50;1.40;;;;;;;;;;6185058;23;20186;-90
2023/08/15 10:48:42;;;;;;;1.60;1.42;;;;;;;;;;6185043;23;20176;-91
2023/08/15 10:51:18;;;;;;;1.38;0.93;;;;;;;;;;6185625;23;20246;-91
2023/08/15 10:53:48;;;;;;;1.52;1.42;;;;;;;;;;6185085;23;20191;-91
2023/08/15 10:56:19;;;;;;;1.55;1.40;;;;;;;;;;6184978;23;20514;-91
2023/08/15 10:58:46;;;;;;;1.55;1.45;;;;;;;;;;6185360;23;20261;-91
2023/08/15 11:01:18;;;;;;;1.48;1.38;;;;;;;;;;6185128;23;20253;-90
2023/08/15 11:03:48;;;;;;;1.80;1.70;;;;;;;;;;6185155;23;20519;-91
2023/08/15 11:06:16;;;;;;;2.42;1.63;;;;;;;;;;6185331;23;20562;-90
2023/08/15 11:08:46;;;;;;;1.70;1.60;;;;;;;;;;6184870;23;20213;-90
2023/08/15 11:11:14;;;;;;;1.50;1.40;;;;;;;;;;6184800;23;20189;-91
2023/08/15 11:13:45;;;;;;;5.25;4.85;;;;;;;;;;6184902;23;20272;-91
2023/08/15 11:16:15;;;;;;;2.20;2.00;;;;;;;;;;6185198;23;20202;-90
2023/08/15 11:18:44;;;;;;;1.30;1.30;;;;;;;;;;6185220;23;20185;-90
2023/08/15 11:21:13;;;;;;;1.67;1.50;;;;;;;;;;6185239;23;20261;-90
2023/08/15 11:23:41;;;;;;;1.42;1.40;;;;;;;;;;6184797;23;20218;-90
2023/08/15 11:26:10;;;;;;;1.50;1.40;;;;;;;;;;6184117;23;20257;-89
2023/08/15 11:28:39;;;;;;;1.27;1.17;;;;;;;;;;6185584;23;20614;-90
2023/08/15 11:31:11;;;;;;;3.00;1.33;;;;;;;;;;6185036;23;20249;-89
2023/08/15 11:33:39;;;;;;;1.15;1.15;;;;;;;;;;6185480;23;20228;-90
2023/08/15 11:36:10;;;;;;;1.50;1.40;;;;;;;;;;6187354;23;20181;-90
2023/08/15 11:38:39;;;;;;;0.93;0.93;;;;;;;;;;6187660;23;20751;-90
2023/08/15 11:41:07;;;;;;;1.15;1.15;;;;;;;;;;6187498;23;20217;-90
2023/08/15 11:43:35;;;;;;;1.35;1.25;;;;;;;;;;6187503;23;20197;-90
2023/08/15 11:46:03;;;;;;;1.23;1.15;;;;;;;;;;6187372;23;20174;-90
2023/08/15 11:48:33;;;;;;;0.98;0.98;;;;;;;;;;6187407;23;20253;-90
2023/08/15 11:51:01;;;;;;;1.58;1.48;;;;;;;;;;6188152;23;20205;-90
2023/08/15 11:53:29;;;;;;;1.92;1.30;;;;;;;;;;6188825;23;20270;-90
2023/08/15 11:55:56;;;;;;;1.20;1.10;;;;;;;;;;6187622;23;20253;-90
2023/08/15 11:58:26;;;;;;;1.45;1.35;;;;;;;;;;6187960;23;20233;-90
2023/08/15 12:00:56;;;;;;;1.88;1.77;;;;;;;;;;6188210;23;20174;-90
2023/08/15 12:03:27;;;;;;;1.10;1.10;;;;;;;;;;6188121;23;20569;-90
2023/08/15 12:05:57;;;;;;;1.30;1.27;;;;;;;;;;6188225;23;20161;-90
2023/08/15 12:08:25;;;;;;;1.33;1.23;;;;;;;;;;6188099;23;20158;-89
2023/08/15 12:10:55;;;;;;;1.40;1.17;;;;;;;;;;6187506;23;20171;-90
2023/08/15 12:13:33;;;;;;;1.20;1.20;;;;;;;;;;6187543;23;20186;-90
2023/08/15 12:16:02;;;;;;;7.18;2.65;;;;;;;;;;6186725;23;20217;-90
2023/08/15 12:18:30;;;;;;;2.00;1.83;;;;;;;;;;6186218;23;20664;-90
2023/08/15 12:20:59;;;;;;;1.92;1.80;;;;;;;;;;6186899;23;20668;-91
2023/08/15 12:23:27;;;;;;;1.55;1.45;;;;;;;;;;6186005;23;20278;-90
2023/08/15 12:25:54;;;;;;;1.80;1.33;;;;;;;;;;6186197;23;20617;-90
2023/08/15 12:28:22;;;;;;;3.17;1.92;;;;;;;;;;6186346;23;20220;-90
2023/08/15 12:30:49;;;;;;;11.93;2.58;;;;;;;;;;6186233;23;20190;-90
2023/08/15 12:33:17;;;;;;;1.75;1.30;;;;;;;;;;6185990;23;20212;-90
2023/08/15 12:35:45;;;;;;;2.03;1.38;;;;;;;;;;6186019;23;20261;-90
2023/08/15 12:38:14;;;;;;;1.95;1.25;;;;;;;;;;6186014;23;20198;-90
2023/08/15 12:40:41;;;;;;;1.23;1.20;;;;;;;;;;6186005;23;20221;-90
2023/08/15 12:43:09;;;;;;;1.05;1.00;;;;;;;;;;6185939;23;20186;-90
2023/08/15 12:45:37;;;;;;;1.02;1.02;;;;;;;;;;6185981;23;20178;-90
2023/08/15 12:48:05;;;;;;;1.40;1.30;;;;;;;;;;6185714;23;20250;-90
2023/08/15 12:50:33;;;;;;;0.85;0.85;;;;;;;;;;6185815;23;20274;-90
2023/08/15 12:53:00;;;;;;;1.40;1.30;;;;;;;;;;6186061;23;20285;-90
2023/08/15 12:55:29;;;;;;;1.00;1.00;;;;;;;;;;6185935;23;20207;-90
2023/08/15 12:57:56;;;;;;;2.22;1.17;;;;;;;;;;6186146;23;20689;-90
2023/08/15 13:00:24;;;;;;;1.40;1.40;;;;;;;;;;6185807;23;20174;-90
2023/08/15 13:02:51;;;;;;;0.77;0.77;;;;;;;;;;6186047;23;20557;-91
2023/08/15 13:05:19;;;;;;;0.93;0.93;;;;;;;;;;6185991;23;20254;-90
2023/08/15 13:07:46;;;;;;;0.88;0.88;;;;;;;;;;6185763;23;20245;-90
2023/08/15 13:10:14;;;;;;;0.90;0.90;;;;;;;;;;6185883;23;20170;-90
2023/08/15 13:12:43;;;;;;;1.58;1.48;;;;;;;;;;6185402;23;20581;-90
2023/08/15 13:15:11;;;;;;;2.58;1.50;;;;;;;;;;6186244;23;20174;-90
2023/08/15 13:17:38;;;;;;;1.02;1.02;;;;;;;;;;6185900;23;20174;-90
2023/08/15 13:20:08;;;;;;;1.20;1.20;;;;;;;;;;6185552;23;20226;-90
2023/08/15 13:22:36;;;;;;;1.08;1.08;;;;;;;;;;6185498;23;20234;-90
2023/08/15 13:25:04;;;;;;;1.50;1.40;;;;;;;;;;6185586;23;20171;-90
2023/08/15 13:27:31;;;;;;;1.40;1.30;;;;;;;;;;6185731;23;20221;-90
2023/08/15 13:30:00;;;;;;;1.63;1.52;;;;;;;;;;6185541;23;20225;-90
2023/08/15 13:32:28;;;;;;;1.73;1.50;;;;;;;;;;6185452;23;20248;-90
2023/08/15 13:34:55;;;;;;;1.50;1.33;;;;;;;;;;6185672;23;20170;-90
2023/08/15 13:37:23;;;;;;;2.80;1.50;;;;;;;;;;6185652;23;20560;-89
2023/08/15 13:39:53;;;;;;;2.55;1.60;;;;;;;;;;6185529;23;20226;-89
2023/08/15 13:42:20;;;;;;;1.58;1.48;;;;;;;;;;6185439;23;20186;-89
2023/08/15 13:44:48;;;;;;;1.75;1.60;;;;;;;;;;6185823;23;20213;-90
2023/08/15 13:47:17;;;;;;;1.85;1.70;;;;;;;;;;6185470;23;20233;-89
2023/08/15 13:49:44;;;;;;;1.77;1.45;;;;;;;;;;6185473;23;20182;-90
2023/08/15 13:52:12;;;;;;;1.13;1.13;;;;;;;;;;6185284;23;20570;-90
2023/08/15 13:54:39;;;;;;;1.65;1.30;;;;;;;;;;6185289;23;20206;-90
2023/08/15 13:57:07;;;;;;;1.50;1.40;;;;;;;;;;6185234;23;20170;-90
2023/08/15 13:59:34;;;;;;;1.40;1.30;;;;;;;;;;6185347;23;20226;-91
2023/08/15 14:02:02;;;;;;;1.48;1.38;;;;;;;;;;6185027;23;20225;-90
2023/08/15 14:04:31;;;;;;;1.48;1.38;;;;;;;;;;6185129;23;20609;-89
2023/08/15 14:06:59;;;;;;;2.60;1.27;;;;;;;;;;6184877;23;20172;-90
2023/08/15 14:09:27;;;;;;;3.72;1.33;;;;;;;;;;6185223;23;20249;-90
2023/08/15 14:11:54;;;;;;;1.20;1.10;;;;;;;;;;6185250;23;20240;-89
2023/08/15 14:14:22;;;;;;;1.42;1.33;;;;;;;;;;6185099;23;20729;-90
2023/08/15 14:16:51;;;;;;;1.25;1.13;;;;;;;;;;6185064;23;20274;-89
2023/08/15 14:19:18;;;;;;;1.33;1.20;;;;;;;;;;6185130;23;20225;-89
2023/08/15 14:21:47;;;;;;;1.77;1.67;;;;;;;;;;6185252;23;20313;-89
2023/08/15 14:24:15;;;;;;;2.17;1.35;;;;;;;;;;6185372;23;20668;-88
2023/08/15 14:26:43;;;;;;;2.58;1.63;;;;;;;;;;6184871;23;20217;-90
2023/08/15 14:29:10;;;;;;;1.95;1.63;;;;;;;;;;6185205;23;20209;-89
2023/08/15 14:31:38;;;;;;;1.45;1.35;;;;;;;;;;6184994;23;20201;-89
2023/08/15 14:34:06;;;;;;;2.65;2.45;;;;;;;;;;6184986;23;20170;-89
2023/08/15 14:36:33;;;;;;;1.90;1.63;;;;;;;;;;6185070;23;20221;-90
2023/08/15 14:39:02;;;;;;;1.17;1.13;;;;;;;;;;6184923;23;20668;-89
2023/08/15 14:41:31;;;;;;;2.05;1.95;;;;;;;;;;6185189;23;20210;-89
2023/08/15 14:43:58;;;;;;;1.13;1.13;;;;;;;;;;6184839;23;20175;-90
2023/08/15 14:46:26;;;;;;;1.40;1.30;;;;;;;;;;6185269;23;20567;-89
2023/08/15 14:48:53;;;;;;;1.40;1.30;;;;;;;;;;6184914;23;20198;-89
2023/08/15 14:51:21;;;;;;;2.25;1.40;;;;;;;;;;6185065;23;20548;-90